CTN341 LQSA-LDZA
Flight info
| Callsign | CTN341 |
|---|---|
| Flight time | 0h 34m |
| Altitude | 20000 |
| Route | BOSNA L608 KOMAR L187 TEBLI |
| Aircraft | A319/M-SDE3FGHIRWY/LB1 |
Departure
| Time | 2026-04-23 09:16 |
|---|---|
| Airport | Sarajevo International Airport (LQSA) |
Arrival
| Time | 2026-04-23 09:51 |
|---|---|
| Airport | Zagreb Franjo Tuđman International Airport (LDZA) |
| Time | Latitude | Longitude | Altitude | Speed | Heading |
|---|---|---|---|---|---|
| 2026-04-23 08:59 | 43.82567 | 18.33566 | 1703 ft | 0 kts | 28° |
| 2026-04-23 09:03 | 43.82560 | 18.33561 | 1703 ft | 4 kts | 28° |
| 2026-04-23 09:04 | 43.82536 | 18.33543 | 1707 ft | 4 kts | 30° |
| 2026-04-23 09:04 | 43.82514 | 18.33522 | 1706 ft | 4 kts | 48° |
| 2026-04-23 09:04 | 43.82506 | 18.33497 | 1704 ft | 1 kts | 118° |
| 2026-04-23 09:04 | 43.82506 | 18.33496 | 1704 ft | 0 kts | 118° |
| 2026-04-23 09:08 | 43.82501 | 18.33510 | 1703 ft | 3 kts | 118° |
| 2026-04-23 09:08 | 43.82472 | 18.33585 | 1704 ft | 15 kts | 118° |
| 2026-04-23 09:09 | 43.82418 | 18.33730 | 1708 ft | 15 kts | 115° |
| 2026-04-23 09:09 | 43.82374 | 18.33851 | 1707 ft | 14 kts | 117° |
| 2026-04-23 09:09 | 43.82332 | 18.33964 | 1709 ft | 13 kts | 118° |
| 2026-04-23 09:09 | 43.82299 | 18.34052 | 1709 ft | 8 kts | 117° |
| 2026-04-23 09:10 | 43.82280 | 18.34102 | 1710 ft | 0 kts | 117° |
| 2026-04-23 09:10 | 43.82273 | 18.34121 | 1710 ft | 0 kts | 117° |
| 2026-04-23 09:11 | 43.82269 | 18.34132 | 1710 ft | 5 kts | 117° |
| 2026-04-23 09:11 | 43.82243 | 18.34201 | 1711 ft | 8 kts | 117° |
| 2026-04-23 09:11 | 43.82217 | 18.34271 | 1710 ft | 8 kts | 117° |
| 2026-04-23 09:11 | 43.82192 | 18.34338 | 1710 ft | 8 kts | 117° |
| 2026-04-23 09:12 | 43.82159 | 18.34427 | 1713 ft | 14 kts | 117° |
| 2026-04-23 09:12 | 43.82108 | 18.34560 | 1714 ft | 16 kts | 120° |
| 2026-04-23 09:12 | 43.82020 | 18.34629 | 1715 ft | 15 kts | 185° |
| 2026-04-23 09:12 | 43.81938 | 18.34572 | 1716 ft | 10 kts | 230° |
| 2026-04-23 09:13 | 43.81939 | 18.34530 | 1715 ft | 0 kts | 298° |
| 2026-04-23 09:13 | 43.81940 | 18.34530 | 1715 ft | 0 kts | 298° |
| 2026-04-23 09:15 | 43.81959 | 18.34481 | 1713 ft | 26 kts | 298° |
| 2026-04-23 09:15 | 43.82173 | 18.33918 | 1709 ft | 103 kts | 297° |
| 2026-04-23 09:16 | 43.82597 | 18.32777 | 1723 ft | 158 kts | 301° |
| 2026-04-23 09:16 | 43.83086 | 18.31455 | 2450 ft | 155 kts | 302° |
| 2026-04-23 09:16 | 43.83879 | 18.30497 | 3030 ft | 153 kts | 345° |
| 2026-04-23 09:16 | 43.84927 | 18.30173 | 3703 ft | 160 kts | 347° |
| 2026-04-23 09:17 | 43.86063 | 18.29737 | 4157 ft | 182 kts | 345° |
| 2026-04-23 09:17 | 43.87358 | 18.29202 | 4522 ft | 205 kts | 345° |
| 2026-04-23 09:17 | 43.88796 | 18.28588 | 5043 ft | 226 kts | 344° |
| 2026-04-23 09:17 | 43.90318 | 18.27924 | 5962 ft | 231 kts | 344° |
| 2026-04-23 09:18 | 43.91864 | 18.27242 | 6911 ft | 235 kts | 344° |
| 2026-04-23 09:18 | 43.93437 | 18.26546 | 7850 ft | 240 kts | 344° |
| 2026-04-23 09:18 | 43.95041 | 18.25846 | 8819 ft | 244 kts | 348° |
| 2026-04-23 09:18 | 43.96759 | 18.25497 | 9525 ft | 259 kts | 356° |
| 2026-04-23 09:19 | 43.98597 | 18.25251 | 10296 ft | 270 kts | 357° |
| 2026-04-23 09:19 | 44.00485 | 18.25009 | 11153 ft | 274 kts | 357° |
| 2026-04-23 09:19 | 44.02396 | 18.24770 | 12043 ft | 278 kts | 358° |
| 2026-04-23 09:19 | 44.04333 | 18.24496 | 12940 ft | 283 kts | 354° |
| 2026-04-23 09:20 | 44.06240 | 18.23669 | 13781 ft | 293 kts | 339° |
| 2026-04-23 09:20 | 44.08003 | 18.22071 | 14231 ft | 318 kts | 322° |
| 2026-04-23 09:20 | 44.09570 | 18.19709 | 14432 ft | 345 kts | 315° |
| 2026-04-23 09:20 | 44.11187 | 18.17133 | 14836 ft | 359 kts | 315° |
| 2026-04-23 09:21 | 44.12823 | 18.14526 | 15487 ft | 365 kts | 315° |
| 2026-04-23 09:21 | 44.14504 | 18.11854 | 16182 ft | 369 kts | 316° |
| 2026-04-23 09:21 | 44.16207 | 18.09149 | 16886 ft | 373 kts | 316° |
| 2026-04-23 09:21 | 44.17929 | 18.06418 | 17580 ft | 377 kts | 316° |
| 2026-04-23 09:22 | 44.19675 | 18.03655 | 18294 ft | 381 kts | 316° |
| 2026-04-23 09:22 | 44.21436 | 18.00867 | 18919 ft | 386 kts | 316° |
| 2026-04-23 09:22 | 44.23219 | 17.98037 | 19522 ft | 390 kts | 316° |
| 2026-04-23 09:22 | 44.25018 | 17.95178 | 20026 ft | 394 kts | 316° |
| 2026-04-23 09:23 | 44.26830 | 17.92302 | 20177 ft | 395 kts | 316° |
| 2026-04-23 09:23 | 44.28679 | 17.89369 | 20212 ft | 407 kts | 316° |
| 2026-04-23 09:23 | 44.30560 | 17.86383 | 20211 ft | 411 kts | 316° |
| 2026-04-23 09:23 | 44.32445 | 17.83381 | 20215 ft | 411 kts | 316° |
| 2026-04-23 09:24 | 44.34327 | 17.80374 | 20217 ft | 411 kts | 316° |
| 2026-04-23 09:24 | 44.36204 | 17.77368 | 20212 ft | 411 kts | 316° |
| 2026-04-23 09:24 | 44.38082 | 17.74350 | 20215 ft | 411 kts | 316° |
| 2026-04-23 09:24 | 44.39955 | 17.71326 | 20216 ft | 411 kts | 316° |
| 2026-04-23 09:25 | 44.41825 | 17.68299 | 20214 ft | 411 kts | 316° |
| 2026-04-23 09:25 | 44.43693 | 17.65273 | 20215 ft | 411 kts | 316° |
| 2026-04-23 09:25 | 44.45559 | 17.62252 | 20208 ft | 411 kts | 315° |
| 2026-04-23 09:25 | 44.47431 | 17.59221 | 20208 ft | 412 kts | 316° |
| 2026-04-23 09:26 | 44.49301 | 17.56191 | 20203 ft | 411 kts | 316° |
| 2026-04-23 09:26 | 44.51173 | 17.53159 | 20209 ft | 412 kts | 316° |
| 2026-04-23 09:26 | 44.53047 | 17.50117 | 20212 ft | 412 kts | 316° |
| 2026-04-23 09:26 | 44.54286 | 17.48105 | 20218 ft | 412 kts | 316° |
| 2026-04-23 09:27 | 44.56769 | 17.44065 | 20225 ft | 412 kts | 316° |
| 2026-04-23 09:27 | 44.58640 | 17.41019 | 20226 ft | 412 kts | 316° |
| 2026-04-23 09:27 | 44.60510 | 17.37967 | 20229 ft | 412 kts | 315° |
| 2026-04-23 09:27 | 44.62377 | 17.34918 | 20233 ft | 412 kts | 315° |
| 2026-04-23 09:28 | 44.63614 | 17.32894 | 20230 ft | 412 kts | 315° |
| 2026-04-23 09:28 | 44.65483 | 17.29846 | 20241 ft | 412 kts | 316° |
| 2026-04-23 09:28 | 44.67358 | 17.26808 | 20236 ft | 411 kts | 316° |
| 2026-04-23 09:28 | 44.69237 | 17.23776 | 20237 ft | 411 kts | 316° |
| 2026-04-23 09:29 | 44.71115 | 17.20750 | 20231 ft | 411 kts | 316° |
| 2026-04-23 09:29 | 44.72992 | 17.17722 | 20233 ft | 410 kts | 316° |
| 2026-04-23 09:29 | 44.74866 | 17.14693 | 20234 ft | 411 kts | 316° |
| 2026-04-23 09:29 | 44.76741 | 17.11656 | 20238 ft | 411 kts | 316° |
| 2026-04-23 09:30 | 44.78615 | 17.08609 | 20237 ft | 411 kts | 316° |
| 2026-04-23 09:30 | 44.80482 | 17.05563 | 20233 ft | 411 kts | 316° |
| 2026-04-23 09:30 | 44.82350 | 17.02507 | 20241 ft | 411 kts | 315° |
| 2026-04-23 09:30 | 44.84218 | 16.99453 | 20244 ft | 411 kts | 316° |
| 2026-04-23 09:31 | 44.86085 | 16.96401 | 20240 ft | 411 kts | 316° |
| 2026-04-23 09:31 | 44.87926 | 16.93387 | 20242 ft | 411 kts | 315° |
| 2026-04-23 09:31 | 44.89787 | 16.90334 | 20241 ft | 411 kts | 315° |
| 2026-04-23 09:31 | 44.91647 | 16.87274 | 20239 ft | 411 kts | 315° |
| 2026-04-23 09:32 | 44.93512 | 16.84231 | 20237 ft | 409 kts | 317° |
| 2026-04-23 09:32 | 44.95605 | 16.81549 | 20236 ft | 402 kts | 328° |
| 2026-04-23 09:32 | 44.97952 | 16.79461 | 20235 ft | 396 kts | 338° |
| 2026-04-23 09:32 | 45.00475 | 16.77966 | 20235 ft | 392 kts | 345° |
| 2026-04-23 09:33 | 45.03033 | 16.76634 | 20238 ft | 392 kts | 344° |
| 2026-04-23 09:33 | 45.05592 | 16.75295 | 20238 ft | 392 kts | 344° |
| 2026-04-23 09:33 | 45.08148 | 16.73952 | 20234 ft | 392 kts | 344° |
| 2026-04-23 09:33 | 45.10698 | 16.72605 | 20224 ft | 391 kts | 344° |
| 2026-04-23 09:34 | 45.13213 | 16.71269 | 19858 ft | 383 kts | 344° |
| 2026-04-23 09:34 | 45.15701 | 16.69946 | 19388 ft | 380 kts | 343° |
| 2026-04-23 09:34 | 45.18159 | 16.68623 | 18916 ft | 377 kts | 341° |
| 2026-04-23 09:34 | 45.20483 | 16.66862 | 18379 ft | 381 kts | 330° |
| 2026-04-23 09:35 | 45.22544 | 16.64483 | 17811 ft | 383 kts | 322° |
| 2026-04-23 09:35 | 45.24494 | 16.61922 | 17249 ft | 380 kts | 322° |
| 2026-04-23 09:35 | 45.26407 | 16.59417 | 16696 ft | 378 kts | 322° |
| 2026-04-23 09:35 | 45.28333 | 16.56899 | 16132 ft | 375 kts | 322° |
| 2026-04-23 09:36 | 45.30235 | 16.54414 | 15846 ft | 366 kts | 322° |
| 2026-04-23 09:36 | 45.32071 | 16.52007 | 15714 ft | 352 kts | 322° |
| 2026-04-23 09:36 | 45.33836 | 16.49690 | 15584 ft | 339 kts | 322° |
| 2026-04-23 09:36 | 45.35493 | 16.47385 | 15458 ft | 332 kts | 314° |
| 2026-04-23 09:37 | 45.36483 | 16.44435 | 15334 ft | 335 kts | 285° |
| 2026-04-23 09:37 | 45.36391 | 16.41135 | 15116 ft | 340 kts | 257° |
| 2026-04-23 09:37 | 45.35268 | 16.38119 | 14583 ft | 351 kts | 233° |
| 2026-04-23 09:37 | 45.33696 | 16.35516 | 14367 ft | 346 kts | 228° |
| 2026-04-23 09:38 | 45.32039 | 16.33059 | 13995 ft | 343 kts | 226° |
| 2026-04-23 09:38 | 45.30357 | 16.30667 | 13487 ft | 341 kts | 225° |
| 2026-04-23 09:38 | 45.28690 | 16.28294 | 13028 ft | 338 kts | 226° |
| 2026-04-23 09:38 | 45.27058 | 16.25923 | 12498 ft | 333 kts | 227° |
| 2026-04-23 09:39 | 45.25495 | 16.23519 | 11908 ft | 328 kts | 235° |
| 2026-04-23 09:39 | 45.24560 | 16.20662 | 11368 ft | 315 kts | 263° |
| 2026-04-23 09:39 | 45.24551 | 16.17654 | 10820 ft | 299 kts | 288° |
| 2026-04-23 09:39 | 45.25345 | 16.15024 | 10275 ft | 285 kts | 311° |
| 2026-04-23 09:40 | 45.26679 | 16.13029 | 9662 ft | 277 kts | 322° |
| 2026-04-23 09:40 | 45.28086 | 16.11174 | 9009 ft | 275 kts | 321° |
| 2026-04-23 09:40 | 45.29475 | 16.09325 | 8381 ft | 272 kts | 321° |
| 2026-04-23 09:40 | 45.30841 | 16.07502 | 7908 ft | 268 kts | 321° |
| 2026-04-23 09:41 | 45.32200 | 16.05691 | 7697 ft | 267 kts | 320° |
| 2026-04-23 09:41 | 45.33549 | 16.03890 | 7466 ft | 266 kts | 320° |
| 2026-04-23 09:41 | 45.34898 | 16.02091 | 7232 ft | 265 kts | 320° |
| 2026-04-23 09:41 | 45.36242 | 16.00300 | 6998 ft | 265 kts | 320° |
| 2026-04-23 09:42 | 45.37585 | 15.98512 | 6773 ft | 264 kts | 319° |
| 2026-04-23 09:42 | 45.38901 | 15.96751 | 6531 ft | 263 kts | 319° |
| 2026-04-23 09:42 | 45.40232 | 15.94968 | 6305 ft | 262 kts | 319° |
| 2026-04-23 09:42 | 45.41557 | 15.93193 | 6064 ft | 261 kts | 319° |
| 2026-04-23 09:43 | 45.42877 | 15.91423 | 5840 ft | 260 kts | 319° |
| 2026-04-23 09:43 | 45.44186 | 15.89663 | 5620 ft | 259 kts | 319° |
| 2026-04-23 09:43 | 45.45436 | 15.87988 | 5385 ft | 257 kts | 320° |
| 2026-04-23 09:43 | 45.46745 | 15.86234 | 5165 ft | 258 kts | 320° |
| 2026-04-23 09:44 | 45.48044 | 15.84492 | 4939 ft | 256 kts | 320° |
| 2026-04-23 09:44 | 45.49345 | 15.82747 | 4695 ft | 256 kts | 319° |
| 2026-04-23 09:44 | 45.50640 | 15.81009 | 4453 ft | 255 kts | 319° |
| 2026-04-23 09:44 | 45.51916 | 15.79299 | 4331 ft | 245 kts | 320° |
| 2026-04-23 09:45 | 45.53323 | 15.78142 | 4233 ft | 227 kts | 349° |
| 2026-04-23 09:45 | 45.54845 | 15.78216 | 4126 ft | 218 kts | 18° |
| 2026-04-23 09:45 | 45.56104 | 15.79362 | 4031 ft | 218 kts | 44° |
| 2026-04-23 09:45 | 45.57146 | 15.80931 | 3920 ft | 219 kts | 45° |
| 2026-04-23 09:46 | 45.58179 | 15.82497 | 3810 ft | 217 kts | 45° |
| 2026-04-23 09:46 | 45.59219 | 15.84066 | 3709 ft | 218 kts | 44° |
| 2026-04-23 09:46 | 45.60270 | 15.85648 | 3600 ft | 221 kts | 44° |
| 2026-04-23 09:46 | 45.61328 | 15.87244 | 3413 ft | 218 kts | 44° |
| 2026-04-23 09:47 | 45.62356 | 15.88798 | 3264 ft | 214 kts | 44° |
| 2026-04-23 09:47 | 45.63399 | 15.90369 | 3064 ft | 219 kts | 44° |
| 2026-04-23 09:47 | 45.64424 | 15.91919 | 2893 ft | 209 kts | 44° |
| 2026-04-23 09:47 | 45.65394 | 15.93387 | 2637 ft | 197 kts | 44° |
| 2026-04-23 09:48 | 45.66313 | 15.94779 | 2404 ft | 187 kts | 44° |
| 2026-04-23 09:48 | 45.67197 | 15.96111 | 2139 ft | 185 kts | 43° |
| 2026-04-23 09:48 | 45.68052 | 15.97407 | 1893 ft | 173 kts | 44° |
| 2026-04-23 09:48 | 45.68839 | 15.98619 | 1677 ft | 159 kts | 44° |
| 2026-04-23 09:49 | 45.69565 | 15.99721 | 1556 ft | 143 kts | 43° |
| 2026-04-23 09:49 | 45.70228 | 16.00714 | 1357 ft | 134 kts | 42° |
| 2026-04-23 09:49 | 45.70854 | 16.01666 | 1084 ft | 128 kts | 45° |
| 2026-04-23 09:49 | 45.71454 | 16.02573 | 911 ft | 128 kts | 44° |
| 2026-04-23 09:50 | 45.72052 | 16.03484 | 750 ft | 127 kts | 43° |
| 2026-04-23 09:50 | 45.72655 | 16.04393 | 569 ft | 124 kts | 42° |
| 2026-04-23 09:50 | 45.73248 | 16.05293 | 392 ft | 124 kts | 44° |
| 2026-04-23 09:50 | 45.73780 | 16.06093 | 364 ft | 93 kts | 46° |
| 2026-04-23 09:51 | 45.74106 | 16.06590 | 360 ft | 44 kts | 46° |
| 2026-04-23 09:51 | 45.74252 | 16.06813 | 359 ft | 29 kts | 47° |
| 2026-04-23 09:51 | 45.74388 | 16.07018 | 358 ft | 28 kts | 46° |
| 2026-04-23 09:51 | 45.74521 | 16.07214 | 358 ft | 27 kts | 46° |
| 2026-04-23 09:52 | 45.74648 | 16.07416 | 360 ft | 27 kts | 47° |
| 2026-04-23 09:52 | 45.74654 | 16.07545 | 360 ft | 13 kts | 137° |
| 2026-04-23 09:52 | 45.74586 | 16.07636 | 359 ft | 13 kts | 137° |
| 2026-04-23 09:52 | 45.74519 | 16.07725 | 359 ft | 13 kts | 137° |
| 2026-04-23 09:53 | 45.74449 | 16.07818 | 359 ft | 14 kts | 137° |
| 2026-04-23 09:53 | 45.74374 | 16.07908 | 359 ft | 14 kts | 154° |
| 2026-04-23 09:53 | 45.74332 | 16.07949 | 359 ft | 2 kts | 139° |
| 2026-04-23 09:53 | 45.74306 | 16.07984 | 358 ft | 7 kts | 136° |
| 2026-04-23 09:54 | 45.74292 | 16.08003 | 359 ft | 0 kts | 137° |